Time;durP1;ratioP1;P1;durP2;ratioP2;P2;SDS_P1;SDS_P2;PMS_P1;PMS_P2;Temp;Humidity;BMP_temperature;BMP_pressure;BME280_temperature;BME280_humidity;BME280_pressure;Samples;Min_cycle;Max_cycle;Signal;HPM_P1;HPM_P2
2022/01/01 00:00:14;;;;;;;7.73;6.50;;;;;;;12.50;68.13;99773.81;5092641;28;20193;-57
2022/01/01 00:02:41;;;;;;;7.27;6.10;;;;;;;12.49;67.55;99774.66;5092345;28;20183;-57
2022/01/01 00:05:10;;;;;;;7.20;5.80;;;;;;;12.42;67.78;99762.53;5092665;28;20681;-59
2022/01/01 00:07:39;;;;;;;8.37;5.90;;;;;;;12.43;67.82;99769.44;5092923;28;20249;-59
2022/01/01 00:10:07;;;;;;;6.33;5.23;;;;;;;12.29;67.92;99748.63;5092631;28;20619;-60
2022/01/01 00:12:34;;;;;;;7.23;5.63;;;;;;;12.40;67.67;99761.66;5092071;28;20248;-60
2022/01/01 00:15:01;;;;;;;7.63;6.00;;;;;;;12.42;68.04;99760.81;5092858;28;20194;-59
2022/01/01 00:17:29;;;;;;;6.57;5.17;;;;;;;12.37;68.02;99754.75;5092334;28;20198;-58
2022/01/01 00:19:56;;;;;;;5.73;5.13;;;;;;;12.41;68.29;99758.25;5092229;28;20191;-59
2022/01/01 00:22:23;;;;;;;5.33;4.80;;;;;;;12.40;68.03;99757.38;5092212;28;20650;-59
2022/01/01 00:24:50;;;;;;;6.63;5.30;;;;;;;12.44;67.91;99751.41;5092302;28;20294;-58
2022/01/01 00:27:17;;;;;;;6.47;5.60;;;;;;;12.46;67.32;99756.59;5092508;28;20294;-59
2022/01/01 00:29:44;;;;;;;6.47;5.83;;;;;;;12.34;67.91;99766.72;5092108;28;20198;-59
2022/01/01 00:32:11;;;;;;;7.10;5.97;;;;;;;12.26;68.36;99748.59;5092104;28;20566;-59
2022/01/01 00:34:39;;;;;;;6.70;5.07;;;;;;;12.23;68.40;99747.66;5087433;28;20614;-58
2022/01/01 00:37:06;;;;;;;6.17;5.57;;;;;;;12.21;68.42;99746.78;5071651;28;20194;-58
2022/01/01 00:39:33;;;;;;;5.53;5.00;;;;;;;12.22;68.44;99756.28;5071887;28;20282;-59
2022/01/01 00:42:00;;;;;;;6.50;5.80;;;;;;;12.21;68.44;99752.81;5071771;28;20196;-59
2022/01/01 00:44:30;;;;;;;6.50;5.43;;;;;;;12.17;68.76;99748.44;5072013;28;20192;-59
2022/01/01 00:46:57;;;;;;;5.00;4.47;;;;;;;12.10;68.51;99728.63;5071639;28;20597;-59
2022/01/01 00:49:24;;;;;;;5.13;4.40;;;;;;;12.12;68.52;99744.09;5071404;28;20191;-59
2022/01/01 00:51:52;;;;;;;4.73;3.90;;;;;;;12.23;68.18;99738.25;5071345;28;20274;-59
2022/01/01 00:54:19;;;;;;;4.63;4.10;;;;;;;11.91;68.01;99674.28;5071339;28;20230;-60
2022/01/01 00:56:46;;;;;;;5.27;3.97;;;;;;;12.42;67.42;99727.31;5070606;28;20551;-60
2022/01/01 00:59:15;;;;;;;4.83;4.00;;;;;;;12.46;67.38;99735.09;5071206;28;20199;-59
2022/01/01 01:01:42;;;;;;;3.53;3.23;;;;;;;12.52;67.08;99730.03;5070501;28;20203;-59
2022/01/01 01:04:09;;;;;;;4.78;4.10;;;;;;;12.69;66.18;99725.94;5070985;28;21020;-59
2022/01/01 01:06:36;;;;;;;4.80;3.73;;;;;;;12.70;66.39;99727.66;5070832;28;20218;-59
2022/01/01 01:09:04;;;;;;;4.23;3.57;;;;;;;12.70;66.93;99725.06;5077689;28;20655;-58
2022/01/01 01:11:31;;;;;;;4.23;3.67;;;;;;;12.75;66.60;99716.53;5077702;28;20635;-58
2022/01/01 01:14:00;;;;;;;3.90;3.60;;;;;;;12.77;66.22;99711.41;5090688;28;20222;-56
2022/01/01 01:16:28;;;;;;;4.83;4.10;;;;;;;12.77;65.76;99703.69;5090541;28;20194;-56
2022/01/01 01:18:57;;;;;;;4.23;3.80;;;;;;;12.74;66.43;99694.22;5090677;28;20195;-59
2022/01/01 01:21:25;;;;;;;4.30;3.90;;;;;;;12.74;66.29;99690.75;5091070;28;20683;-58
2022/01/01 01:23:53;;;;;;;8.33;4.70;;;;;;;12.74;66.83;99681.31;5091195;28;20633;-58
2022/01/01 01:26:22;;;;;;;4.40;4.00;;;;;;;12.77;66.73;99673.59;5091025;28;20201;-57
2022/01/01 01:28:51;;;;;;;4.73;3.97;;;;;;;12.68;66.90;99670.06;5091426;28;20195;-58
2022/01/01 01:31:18;;;;;;;4.97;4.33;;;;;;;12.69;66.55;99671.81;5091186;28;20252;-59
2022/01/01 01:33:45;;;;;;;5.47;4.57;;;;;;;12.61;67.13;99674.28;5090650;28;20217;-59
2022/01/01 01:36:13;;;;;;;6.77;4.77;;;;;;;12.61;66.98;99676.00;5090723;28;20237;-59
2022/01/01 01:38:40;;;;;;;7.07;5.27;;;;;;;12.47;67.00;99672.41;5090703;28;20190;-59
2022/01/01 01:41:09;;;;;;;5.77;5.00;;;;;;;12.37;67.75;99684.31;5090322;28;20187;-60
2022/01/01 01:43:37;;;;;;;6.97;5.50;;;;;;;12.29;67.31;99673.91;5090318;28;20273;-59
2022/01/01 01:46:06;;;;;;;6.17;4.77;;;;;;;12.10;68.07;99674.53;5087276;28;20568;-59
2022/01/01 01:48:34;;;;;;;8.17;5.13;;;;;;;12.00;68.70;99667.53;5090695;28;20199;-59
2022/01/01 01:51:01;;;;;;;11.03;5.37;;;;;;;11.94;69.38;99666.59;5090285;28;20209;-58
2022/01/01 01:53:28;;;;;;;6.40;5.70;;;;;;;11.87;69.62;99675.09;5090661;28;20222;-59
2022/01/01 01:55:56;;;;;;;7.80;5.87;;;;;;;11.84;69.65;99675.88;5090864;28;20201;-58
2022/01/01 01:58:24;;;;;;;7.03;5.67;;;;;;;11.71;70.31;99669.69;5090619;28;20195;-58
2022/01/01 02:03:33;;;;;;;5.67;5.17;;;;;;;11.56;70.46;99678.88;5077250;28;20198;-58
2022/01/01 02:06:00;;;;;;;6.23;5.63;;;;;;;11.41;71.12;99671.78;5090687;28;20277;-59
2022/01/01 02:08:28;;;;;;;8.20;5.77;;;;;;;11.47;71.55;99668.44;5090271;28;20194;-59
2022/01/01 02:10:55;;;;;;;8.57;5.87;;;;;;;11.41;71.70;99668.34;5090441;28;20570;-59
2022/01/01 02:13:28;;;;;;;7.77;6.33;;;;;;;11.35;71.55;99657.94;5090206;28;20624;-56
2022/01/01 02:16:16;;;;;;;10.60;6.27;;;;;;;11.37;71.53;99661.44;5090726;28;20293;-57
2022/01/01 02:18:46;;;;;;;8.73;6.57;;;;;;;11.34;72.15;99646.81;5090268;28;20199;-59
2022/01/01 02:21:15;;;;;;;7.17;6.10;;;;;;;11.29;71.78;99652.72;5090372;28;20198;-59
2022/01/01 02:23:44;;;;;;;6.60;5.85;;;;;;;11.30;72.11;99662.16;5090204;28;20436;-59
2022/01/01 02:26:13;;;;;;;6.33;5.70;;;;;;;11.25;72.16;99662.97;5090241;28;20187;-60
2022/01/01 02:28:41;;;;;;;6.93;5.27;;;;;;;11.27;71.83;99658.72;5090894;28;20997;-57
2022/01/01 02:31:08;;;;;;;5.97;5.17;;;;;;;11.30;72.00;99655.31;5090669;28;20199;-57
2022/01/01 02:33:35;;;;;;;5.80;4.77;;;;;;;11.30;71.69;99659.59;5090171;28;20215;-55
2022/01/01 02:36:02;;;;;;;8.43;5.23;;;;;;;11.36;71.51;99659.69;5090053;28;20225;-56
2022/01/01 02:38:33;;;;;;;7.60;4.80;;;;;;;11.27;72.15;99669.00;5090276;28;20282;-56
2022/01/01 02:41:00;;;;;;;6.57;5.40;;;;;;;11.23;72.30;99663.78;5090053;28;20194;-56
2022/01/01 02:43:27;;;;;;;5.37;4.87;;;;;;;11.26;71.85;99662.09;5089966;28;20179;-56
2022/01/01 02:45:54;;;;;;;6.07;5.07;;;;;;;11.22;72.21;99652.63;5090355;28;20282;-56
2022/01/01 02:48:21;;;;;;;9.07;5.67;;;;;;;11.32;71.59;99655.34;5089953;28;20191;-56
2022/01/01 02:50:51;;;;;;;7.10;5.20;;;;;;;11.35;71.64;99652.81;5090258;28;20195;-56
2022/01/01 02:53:18;;;;;;;5.40;4.57;;;;;;;11.33;71.31;99633.91;5090188;28;20191;-56
2022/01/01 02:55:47;;;;;;;4.47;3.87;;;;;;;11.48;71.32;99657.31;5089915;28;20187;-56
2022/01/01 02:58:14;;;;;;;4.43;4.00;;;;;;;11.51;71.31;99667.66;5090183;28;20186;-56
2022/01/01 03:00:42;;;;;;;4.57;3.73;;;;;;;11.61;70.57;99666.94;5090059;28;20235;-56
2022/01/01 03:03:09;;;;;;;5.23;4.17;;;;;;;11.70;70.30;99662.81;5089759;28;20193;-57
2022/01/01 03:05:36;;;;;;;5.53;3.60;;;;;;;11.72;70.15;99668.00;5089909;28;20275;-56
2022/01/01 03:08:04;;;;;;;4.00;3.60;;;;;;;11.79;69.85;99672.38;5090173;28;20202;-57
2022/01/01 03:10:31;;;;;;;5.90;4.10;;;;;;;11.75;70.30;99648.31;5089556;28;20195;-56
2022/01/01 03:12:59;;;;;;;4.20;3.33;;;;;;;11.71;69.83;99659.41;5091534;28;20293;-56
2022/01/01 03:15:26;;;;;;;4.20;3.80;;;;;;;11.69;70.37;99647.38;5096234;28;20709;-57
2022/01/01 03:17:53;;;;;;;5.37;4.00;;;;;;;11.70;70.75;99672.28;5089842;28;20231;-56
2022/01/01 03:20:20;;;;;;;4.70;3.90;;;;;;;11.64;71.40;99661.84;5092630;28;20199;-56
2022/01/01 03:22:47;;;;;;;4.10;3.40;;;;;;;11.66;71.59;99670.44;5093549;28;20206;-57
2022/01/01 03:25:14;;;;;;;4.10;3.70;;;;;;;11.73;71.49;99656.84;5093504;28;20187;-59
2022/01/01 03:27:40;;;;;;;4.83;4.07;;;;;;;11.73;71.52;99668.00;5093341;28;20195;-59
2022/01/01 03:30:09;;;;;;;5.17;3.60;;;;;;;11.76;71.33;99668.06;5093517;28;20195;-59
2022/01/01 03:32:36;;;;;;;3.77;3.47;;;;;;;11.86;70.69;99663.03;5093227;28;20648;-59
2022/01/01 03:35:04;;;;;;;3.07;2.83;;;;;;;11.89;69.94;99661.38;5092765;28;20231;-59
2022/01/01 03:37:31;;;;;;;3.33;3.03;;;;;;;11.83;70.28;99667.31;5072906;28;20194;-59
2022/01/01 03:39:58;;;;;;;3.40;3.10;;;;;;;11.87;70.16;99668.19;5073015;28;20290;-59
2022/01/01 03:42:25;;;;;;;3.30;3.00;;;;;;;11.94;70.32;99658.88;5072873;28;20559;-59
2022/01/01 03:44:52;;;;;;;3.85;3.38;;;;;;;12.07;69.62;99663.31;5088961;28;20428;-58
2022/01/01 03:47:20;;;;;;;3.60;3.30;;;;;;;12.13;69.54;99658.25;5093020;28;20650;-59
2022/01/01 03:49:49;;;;;;;4.50;3.43;;;;;;;12.09;69.33;99652.19;5093137;28;20195;-59
2022/01/01 03:52:17;;;;;;;3.80;3.40;;;;;;;12.14;69.28;99649.69;5092887;28;20699;-59
2022/01/01 03:54:43;;;;;;;4.07;3.67;;;;;;;12.13;69.46;99648.81;5092721;28;20217;-59
2022/01/01 03:57:10;;;;;;;3.67;3.27;;;;;;;12.10;69.70;99643.63;5092679;28;20197;-59
2022/01/01 03:59:37;;;;;;;3.30;2.93;;;;;;;12.15;69.72;99638.53;5092785;28;20281;-58
2022/01/01 04:02:04;;;;;;;4.00;3.33;;;;;;;12.16;69.18;99635.97;5092782;28;20201;-56
2022/01/01 04:04:32;;;;;;;4.17;3.50;;;;;;;12.24;68.85;99642.09;5092581;28;20187;-57
2022/01/01 04:07:01;;;;;;;4.10;3.17;;;;;;;12.13;69.26;99632.50;5092744;28;20574;-56
2022/01/01 04:09:27;;;;;;;4.03;3.43;;;;;;;12.13;69.42;99635.06;5092883;28;20226;-56
2022/01/01 04:11:55;;;;;;;4.93;3.60;;;;;;;12.10;69.46;99610.16;5092786;28;20665;-56
2022/01/01 04:14:21;;;;;;;5.07;3.27;;;;;;;12.04;70.03;99619.50;5092554;28;20217;-57
2022/01/01 04:16:51;;;;;;;3.63;3.07;;;;;;;12.09;69.57;99610.09;5092558;28;20190;-57
2022/01/01 04:19:18;;;;;;;3.10;2.90;;;;;;;12.19;69.16;99605.13;5092389;28;20240;-56
2022/01/01 04:21:46;;;;;;;4.20;2.67;;;;;;;12.27;68.86;99603.50;5092102;28;20191;-58
2022/01/01 04:24:13;;;;;;;3.05;2.75;;;;;;;12.52;67.85;99601.16;5091879;28;20555;-58
2022/01/01 04:26:40;;;;;;;2.17;2.00;;;;;;;12.71;67.07;99592.75;5092084;28;20202;-58
2022/01/01 04:29:07;;;;;;;2.70;2.50;;;;;;;12.77;67.07;99598.81;5092536;28;20205;-59
2022/01/01 04:31:34;;;;;;;2.40;2.20;;;;;;;12.84;66.37;99594.59;5091077;28;20740;-58
2022/01/01 04:34:00;;;;;;;2.70;2.40;;;;;;;12.90;66.57;99599.81;5092101;28;20209;-57
2022/01/01 04:36:27;;;;;;;2.70;2.27;;;;;;;12.91;66.61;99614.44;5092176;28;20193;-58
2022/01/01 04:38:56;;;;;;;2.97;2.50;;;;;;;12.93;66.39;99607.56;5092119;28;20251;-59
2022/01/01 04:41:23;;;;;;;2.90;2.63;;;;;;;12.90;66.52;99598.09;5091592;28;20274;-57
2022/01/01 04:43:50;;;;;;;3.83;2.47;;;;;;;12.89;66.34;99598.94;5091919;28;20190;-57
2022/01/01 04:46:17;;;;;;;2.40;2.20;;;;;;;12.99;65.86;99594.72;5091986;28;20581;-57
2022/01/01 04:48:44;;;;;;;2.40;2.20;;;;;;;13.00;65.86;99596.44;5092019;28;20202;-56
2022/01/01 04:51:12;;;;;;;3.07;2.70;;;;;;;13.00;65.83;99584.41;5092015;28;20199;-57
2022/01/01 04:53:43;;;;;;;4.53;2.40;;;;;;;13.07;65.76;99576.72;5091850;28;20205;-57
2022/01/01 04:56:17;;;;;;;2.67;2.10;;;;;;;13.09;65.21;99585.38;5091713;28;20705;-57
2022/01/01 04:58:44;;;;;;;2.33;2.13;;;;;;;13.09;65.13;99590.53;5091498;28;20186;-57
2022/01/01 05:01:12;;;;;;;2.77;2.37;;;;;;;13.08;65.35;99597.41;5091715;28;20195;-56
2022/01/01 05:03:38;;;;;;;2.58;2.38;;;;;;;12.99;65.68;99590.41;5091529;28;20354;-56
2022/01/01 05:06:06;;;;;;;3.43;2.90;;;;;;;13.00;65.84;99599.88;5091576;28;20193;-56
2022/01/01 05:08:33;;;;;;;3.70;2.60;;;;;;;13.09;65.66;99591.41;5091220;28;20206;-56
2022/01/01 05:10:59;;;;;;;2.70;2.50;;;;;;;13.17;65.27;99584.56;5091262;28;20191;-56
2022/01/01 05:13:28;;;;;;;2.93;2.50;;;;;;;13.20;65.00;99586.31;5091518;28;20202;-56
2022/01/01 05:15:55;;;;;;;3.38;2.70;;;;;;;13.29;65.17;99574.34;5090221;28;20539;-57
2022/01/01 05:18:23;;;;;;;2.73;2.53;;;;;;;13.44;64.95;99578.72;5091221;28;20547;-57
2022/01/01 05:20:50;;;;;;;2.30;2.10;;;;;;;13.47;64.66;99583.91;5091339;28;20608;-56
2022/01/01 05:23:17;;;;;;;5.67;2.43;;;;;;;13.42;64.53;99590.75;5091086;28;20278;-56
2022/01/01 05:25:44;;;;;;;2.60;2.40;;;;;;;13.47;64.72;99592.53;5091137;28;20195;-57
2022/01/01 05:28:10;;;;;;;2.70;2.50;;;;;;;13.51;64.61;99586.50;5091178;28;20274;-57
2022/01/01 05:30:39;;;;;;;2.67;2.40;;;;;;;13.49;64.97;99595.97;5091224;28;20214;-56
2022/01/01 05:33:06;;;;;;;3.00;2.70;;;;;;;13.48;64.88;99590.81;5091039;28;20187;-57
2022/01/01 05:35:32;;;;;;;3.93;2.93;;;;;;;13.40;65.06;99587.31;5090895;28;20230;-56
2022/01/01 05:37:59;;;;;;;3.67;2.73;;;;;;;13.41;64.96;99592.47;5091415;28;20197;-57
2022/01/01 05:40:26;;;;;;;3.97;2.60;;;;;;;13.43;65.04;99579.59;5091230;28;20201;-56
2022/01/01 05:42:53;;;;;;;3.13;2.70;;;;;;;13.54;64.66;99583.09;5090138;28;20289;-56
2022/01/01 05:45:20;;;;;;;3.30;2.53;;;;;;;13.51;64.78;99585.66;5090646;28;20201;-56
2022/01/01 05:47:48;;;;;;;4.07;2.83;;;;;;;13.56;64.79;99599.47;5090647;28;20187;-56
2022/01/01 05:50:17;;;;;;;2.87;2.50;;;;;;;13.51;64.77;99594.25;5090840;28;20194;-56
2022/01/01 05:52:44;;;;;;;3.03;2.73;;;;;;;13.50;64.91;99597.72;5090858;28;20264;-56
2022/01/01 05:55:11;;;;;;;5.27;2.80;;;;;;;13.55;64.89;99602.88;5090832;28;20219;-56
2022/01/01 05:57:38;;;;;;;3.97;2.87;;;;;;;13.58;64.86;99603.78;5090649;28;20693;-56
2022/01/01 06:00:08;;;;;;;3.93;2.80;;;;;;;13.54;64.68;99596.00;5090306;28;20198;-56
2022/01/01 06:02:39;;;;;;;3.83;3.27;;;;;;;13.55;65.09;99598.59;5090121;28;20183;-56
2022/01/01 06:05:08;;;;;;;3.30;2.97;;;;;;;13.57;64.77;99599.44;5090239;28;20187;-57
2022/01/01 06:07:36;;;;;;;3.90;3.03;;;;;;;13.49;64.76;99593.38;5090142;28;20193;-57
2022/01/01 06:10:03;;;;;;;3.10;2.60;;;;;;;13.53;64.34;99599.44;5089942;28;20179;-57
2022/01/01 06:12:30;;;;;;;3.63;2.57;;;;;;;13.52;64.63;99600.28;5070296;28;20361;-57
2022/01/01 06:14:58;;;;;;;3.93;2.80;;;;;;;13.52;64.74;99608.03;5070240;28;20220;-56
2022/01/01 06:17:25;;;;;;;2.73;2.53;;;;;;;13.50;64.18;99612.31;5070595;28;20253;-57
2022/01/01 06:19:52;;;;;;;3.77;2.80;;;;;;;13.55;63.70;99613.22;5070490;28;20191;-57
2022/01/01 06:22:20;;;;;;;3.80;2.77;;;;;;;13.54;63.15;99627.81;5070165;28;20196;-57
2022/01/01 06:24:47;;;;;;;2.90;2.70;;;;;;;13.42;63.77;99627.78;5070364;28;20282;-57
2022/01/01 06:27:14;;;;;;;3.73;2.90;;;;;;;13.39;63.72;99625.16;5070305;28;20282;-57
2022/01/01 06:29:41;;;;;;;3.53;2.53;;;;;;;13.45;63.48;99640.69;5080869;28;20192;-57
2022/01/01 06:32:08;;;;;;;4.50;3.33;;;;;;;13.43;63.75;99636.38;5090102;28;20290;-60
2022/01/01 06:34:35;;;;;;;4.73;2.83;;;;;;;13.35;63.85;99636.31;5089882;28;20309;-58
2022/01/01 06:37:02;;;;;;;6.37;2.97;;;;;;;13.39;64.03;99643.22;5090126;28;20285;-59
2022/01/01 06:39:30;;;;;;;4.40;3.47;;;;;;;13.38;64.31;99641.50;5090310;28;20210;-58
2022/01/01 06:41:57;;;;;;;5.67;3.13;;;;;;;13.42;64.28;99645.84;5090176;28;20187;-58
2022/01/01 06:44:24;;;;;;;3.63;2.97;;;;;;;13.41;64.28;99641.50;5090046;28;20187;-58
2022/01/01 06:46:51;;;;;;;4.77;3.03;;;;;;;13.39;64.49;99635.47;5090218;28;20191;-59
2022/01/01 06:49:18;;;;;;;4.27;3.20;;;;;;;13.43;64.40;99644.97;5090028;28;20194;-58
2022/01/01 06:51:45;;;;;;;5.70;3.40;;;;;;;13.38;64.17;99644.06;5090030;28;20278;-59
2022/01/01 06:54:12;;;;;;;3.50;3.20;;;;;;;13.38;64.12;99645.78;5091514;28;20191;-58
2022/01/01 06:56:40;;;;;;;3.77;3.00;;;;;;;13.40;64.17;99655.28;5094014;28;20226;-58
2022/01/01 06:59:08;;;;;;;3.23;2.80;;;;;;;13.42;64.08;99648.41;5094215;28;20191;-59
2022/01/01 07:01:35;;;;;;;3.63;2.57;;;;;;;13.51;63.27;99642.47;5094194;28;20648;-59
2022/01/01 07:04:03;;;;;;;3.47;2.70;;;;;;;13.52;63.45;99655.34;5093999;28;20179;-59
2022/01/01 07:06:30;;;;;;;3.83;2.70;;;;;;;13.55;62.87;99645.06;5094085;28;20558;-59
2022/01/01 07:08:57;;;;;;;5.10;2.77;;;;;;;13.70;62.69;99652.03;5093903;28;20585;-58
2022/01/01 07:11:24;;;;;;;3.97;2.73;;;;;;;13.82;61.30;99653.81;5093651;28;20195;-58
2022/01/01 07:13:53;;;;;;;2.77;2.57;;;;;;;13.77;60.79;99647.75;5093415;28;20283;-56
2022/01/01 07:16:21;;;;;;;2.97;2.63;;;;;;;13.91;60.36;99665.06;5093321;28;20301;-59
2022/01/01 07:18:48;;;;;;;3.28;2.70;;;;;;;13.99;60.13;99665.09;5092876;28;20439;-59
2022/01/01 07:21:15;;;;;;;2.87;2.57;;;;;;;14.05;59.56;99668.59;5093254;28;20275;-58
2022/01/01 07:23:42;;;;;;;3.93;2.30;;;;;;;14.06;59.22;99679.81;5092939;28;20765;-57
2022/01/01 07:26:09;;;;;;;2.80;2.60;;;;;;;14.13;58.89;99674.66;5093235;28;20193;-57
2022/01/01 07:28:36;;;;;;;2.27;2.10;;;;;;;14.14;58.86;99672.94;5090913;28;20195;-58
2022/01/01 07:31:05;;;;;;;2.70;2.10;;;;;;;14.28;58.50;99699.72;5093382;28;20189;-56
2022/01/01 07:33:31;;;;;;;3.33;2.40;;;;;;;14.29;58.46;99683.34;5093581;28;20304;-56
2022/01/01 07:35:58;;;;;;;2.47;2.20;;;;;;;14.31;58.36;99678.19;5092562;28;20232;-58
2022/01/01 07:38:25;;;;;;;2.63;2.23;;;;;;;14.30;58.35;99679.91;5092915;28;20199;-58
2022/01/01 07:40:53;;;;;;;4.63;2.60;;;;;;;14.39;58.07;99674.81;5093425;28;20322;-58
2022/01/01 07:43:20;;;;;;;7.40;2.70;;;;;;;14.43;58.40;99671.38;5093157;28;20190;-58
2022/01/01 07:45:48;;;;;;;3.45;2.40;;;;;;;14.54;58.13;99679.16;5091980;28;20440;-58
2022/01/01 07:48:16;;;;;;;3.57;2.60;;;;;;;14.63;57.97;99677.47;5095658;28;20203;-58
2022/01/01 07:50:43;;;;;;;3.23;2.50;;;;;;;14.76;57.63;99678.38;5097482;28;20207;-57
2022/01/01 07:53:10;;;;;;;3.03;2.20;;;;;;;14.80;57.42;99677.53;5092146;28;20193;-57
2022/01/01 07:55:37;;;;;;;3.13;2.20;;;;;;;14.88;57.28;99672.34;5092321;28;20217;-57
2022/01/01 07:58:05;;;;;;;2.67;2.00;;;;;;;14.87;57.12;99652.50;5092698;28;20200;-57
2022/01/01 08:00:33;;;;;;;2.40;2.20;;;;;;;14.94;57.09;99660.31;5092899;28;20220;-57
2022/01/01 08:02:59;;;;;;;2.30;2.20;;;;;;;14.94;57.08;99644.78;5092719;28;20205;-57
2022/01/01 08:05:28;;;;;;;2.80;2.40;;;;;;;14.97;57.18;99662.88;5092309;28;20677;-58
2022/01/01 08:07:55;;;;;;;2.50;2.30;;;;;;;15.04;56.96;99650.81;5092004;28;20662;-58
2022/01/01 08:10:23;;;;;;;2.47;2.23;;;;;;;15.04;57.18;99650.81;5092604;28;20278;-58
2022/01/01 08:12:50;;;;;;;3.50;2.37;;;;;;;15.08;57.19;99657.72;5092845;28;20204;-58
2022/01/01 08:15:17;;;;;;;3.90;2.13;;;;;;;15.14;57.20;99653.41;5092175;28;20261;-58
2022/01/01 08:17:44;;;;;;;2.60;2.37;;;;;;;15.23;57.18;99652.53;5092222;28;20194;-58
2022/01/01 08:20:13;;;;;;;2.30;2.10;;;;;;;15.31;57.15;99656.00;5092381;28;20197;-58
2022/01/01 08:22:41;;;;;;;3.03;2.60;;;;;;;15.37;56.82;99656.00;5092517;28;20613;-57
2022/01/01 08:25:09;;;;;;;3.00;2.60;;;;;;;15.39;56.74;99662.03;5092014;28;20191;-57
2022/01/01 08:27:36;;;;;;;3.63;2.83;;;;;;;15.36;56.85;99662.91;5090456;28;20657;-57
2022/01/01 08:30:04;;;;;;;3.90;2.80;;;;;;;15.31;57.06;99654.28;5087993;28;20277;-57
2022/01/01 08:32:32;;;;;;;6.03;2.70;;;;;;;15.38;57.12;99669.81;5091135;28;20179;-56
2022/01/01 08:34:59;;;;;;;4.17;2.80;;;;;;;15.44;56.83;99665.47;5091445;28;20309;-56
2022/01/01 08:37:26;;;;;;;4.00;3.00;;;;;;;15.44;56.92;99673.25;5091860;28;20182;-57
2022/01/01 08:39:56;;;;;;;3.53;2.90;;;;;;;15.36;57.34;99665.50;5092352;28;20195;-57
2022/01/01 08:42:24;;;;;;;4.77;3.70;;;;;;;15.32;57.50;99671.53;5092073;28;20278;-57
2022/01/01 08:44:51;;;;;;;5.93;3.43;;;;;;;15.31;57.62;99676.72;5091829;28;20233;-56
2022/01/01 08:47:18;;;;;;;4.40;3.50;;;;;;;15.29;57.89;99668.09;5091939;28;20188;-58
2022/01/01 08:49:46;;;;;;;5.67;3.10;;;;;;;15.28;58.13;99682.75;5091770;28;20197;-57
2022/01/01 08:52:13;;;;;;;4.93;3.50;;;;;;;15.23;58.36;99683.59;5091776;28;20228;-57
2022/01/01 08:54:40;;;;;;;9.53;4.07;;;;;;;15.26;58.38;99693.97;5091754;28;20671;-57
2022/01/01 08:57:09;;;;;;;3.87;3.47;;;;;;;15.24;58.46;99699.13;5091399;28;20206;-56
2022/01/01 08:59:36;;;;;;;6.23;3.33;;;;;;;15.21;58.80;99706.91;5091782;28;20204;-56
2022/01/01 09:02:03;;;;;;;3.43;3.03;;;;;;;15.21;58.64;99696.56;5091284;28;20201;-56
2022/01/01 09:04:30;;;;;;;3.83;3.10;;;;;;;15.32;58.59;99704.34;5090942;28;20181;-57
2022/01/01 09:06:57;;;;;;;4.80;3.10;;;;;;;15.40;58.33;99693.97;5090669;28;20274;-57
2022/01/01 09:09:24;;;;;;;3.23;2.90;;;;;;;15.38;58.41;99693.97;5091034;28;20187;-57
2022/01/01 09:11:51;;;;;;;6.38;3.88;;;;;;;15.45;58.37;99693.09;5090786;28;20432;-57
2022/01/01 09:14:19;;;;;;;4.70;3.10;;;;;;;15.48;58.36;99690.56;5090988;28;20196;-57
2022/01/01 09:16:46;;;;;;;4.27;3.20;;;;;;;15.58;58.39;99697.44;5090914;28;20329;-57
2022/01/01 09:19:13;;;;;;;5.03;4.10;;;;;;;15.57;58.64;99684.50;5091521;28;20304;-57
2022/01/01 09:21:40;;;;;;;3.97;3.50;;;;;;;15.66;58.38;99695.72;5091439;28;20198;-57
2022/01/01 09:24:07;;;;;;;4.30;3.47;;;;;;;15.68;58.26;99678.47;5091291;28;20916;-57
2022/01/01 09:26:34;;;;;;;4.90;3.90;;;;;;;15.70;58.33;99681.03;5091220;28;20332;-57
2022/01/01 09:29:01;;;;;;;4.77;3.90;;;;;;;15.74;58.40;99682.78;5090705;28;20948;-57
2022/01/01 09:31:29;;;;;;;4.00;3.23;;;;;;;15.77;58.63;99675.84;5091193;28;20195;-57
2022/01/01 09:33:56;;;;;;;4.33;3.60;;;;;;;15.78;58.75;99685.34;5090848;28;20294;-58
2022/01/01 09:36:23;;;;;;;6.80;3.37;;;;;;;15.86;58.75;99677.53;5090706;28;20622;-57
2022/01/01 09:38:50;;;;;;;4.57;4.00;;;;;;;15.90;58.76;99677.53;5090532;28;20435;-57
2022/01/01 09:41:17;;;;;;;5.10;3.90;;;;;;;15.96;58.60;99675.81;5090698;28;20195;-57
2022/01/01 09:43:45;;;;;;;4.70;3.57;;;;;;;15.97;58.73;99680.09;5090922;28;20202;-57
2022/01/01 09:46:14;;;;;;;4.67;3.97;;;;;;;16.08;58.50;99676.63;5090676;28;20183;-57
2022/01/01 09:48:43;;;;;;;4.73;3.87;;;;;;;16.09;58.62;99690.47;5090514;28;20691;-59
2022/01/01 09:51:10;;;;;;;4.00;3.60;;;;;;;16.09;58.68;99674.91;5090105;28;20274;-59
2022/01/01 09:53:38;;;;;;;4.80;3.83;;;;;;;16.13;58.89;99681.78;5089928;28;20191;-59
2022/01/01 09:56:06;;;;;;;6.57;4.27;;;;;;;16.07;58.73;99677.47;5090069;28;20225;-59
2022/01/01 09:58:35;;;;;;;5.53;4.40;;;;;;;16.15;58.68;99685.25;5091076;28;20208;-59
2022/01/01 10:01:03;;;;;;;5.57;4.30;;;;;;;16.13;58.67;99674.88;5090588;28;20187;-59
2022/01/01 10:03:34;;;;;;;4.57;4.03;;;;;;;16.15;58.17;99667.94;5091720;28;20182;-60
2022/01/01 10:06:04;;;;;;;5.43;3.73;;;;;;;16.01;58.04;99648.16;5090205;28;20174;-59
2022/01/01 10:08:33;;;;;;;5.83;4.23;;;;;;;16.22;58.22;99668.81;5087188;28;20653;-59
2022/01/01 10:11:00;;;;;;;5.30;4.27;;;;;;;16.23;58.34;99662.75;5089475;28;20191;-59
2022/01/01 10:13:32;;;;;;;4.27;3.47;;;;;;;16.33;57.74;99659.25;5089902;28;20190;-59
2022/01/01 10:16:01;;;;;;;7.47;4.40;;;;;;;16.43;58.10;99666.13;5089617;28;20199;-60
2022/01/01 10:18:30;;;;;;;3.87;3.47;;;;;;;16.56;57.35;99651.41;5089491;28;20628;-59
2022/01/01 10:20:58;;;;;;;4.97;3.70;;;;;;;16.59;57.38;99657.41;5087239;28;20266;-59
2022/01/01 10:23:29;;;;;;;5.43;4.13;;;;;;;16.65;56.65;99666.91;5089746;28;20182;-59
2022/01/01 10:29:11;;;;;;;4.40;3.53;;;;;;;16.75;56.43;99655.63;5083752;28;20190;-58
2022/01/01 10:31:40;;;;;;;5.53;3.50;;;;;;;16.82;55.98;99646.91;5094072;28;20205;-59
2022/01/01 10:34:11;;;;;;;3.37;3.07;;;;;;;16.84;55.44;99638.22;5093605;28;20194;-58
2022/01/01 10:36:38;;;;;;;4.27;3.47;;;;;;;16.85;55.70;99645.16;5093480;28;20190;-59
2022/01/01 10:39:12;;;;;;;5.93;3.30;;;;;;;16.94;55.45;99645.09;5093895;28;20736;-58
2022/01/01 10:41:51;;;;;;;4.33;3.10;;;;;;;16.90;55.20;99640.78;5093845;28;20212;-59
2022/01/01 10:44:22;;;;;;;4.33;3.50;;;;;;;16.92;54.95;99633.84;5094149;28;20290;-59
2022/01/01 10:46:49;;;;;;;3.73;2.73;;;;;;;17.05;54.18;99645.91;5093559;28;20185;-59
2022/01/01 10:52:16;;;;;;;4.70;3.23;;;;;;;17.19;53.89;99635.41;5092348;28;20181;-59
2022/01/01 10:54:53;;;;;;;5.23;2.80;;;;;;;17.29;53.41;99634.44;5091238;28;20186;-59
2022/01/01 10:57:28;;;;;;;3.17;2.87;;;;;;;17.40;52.95;99644.72;5093956;28;20227;-59
2022/01/01 11:00:13;;;;;;;3.30;2.73;;;;;;;17.49;52.54;99644.66;5093883;28;20197;-59
2022/01/01 11:02:42;;;;;;;2.67;2.43;;;;;;;17.61;52.42;99636.75;5093744;28;20199;-57
2022/01/01 11:05:09;;;;;;;3.00;2.40;;;;;;;17.64;52.46;99639.34;5093603;28;20268;-57
2022/01/01 11:07:36;;;;;;;6.27;4.40;;;;;;;17.75;52.15;99644.41;5093550;28;20191;-57
2022/01/01 11:10:06;;;;;;;3.90;3.10;;;;;;;17.88;51.60;99638.22;5093578;28;20191;-57
2022/01/01 11:12:34;;;;;;;3.40;2.67;;;;;;;17.91;51.47;99633.84;5093669;28;20191;-57
2022/01/01 11:15:04;;;;;;;3.10;2.40;;;;;;;17.96;50.83;99641.59;5093498;28;20216;-58
2022/01/01 11:17:31;;;;;;;4.03;3.03;;;;;;;17.90;51.03;99642.53;5093309;28;21056;-57
2022/01/01 11:20:00;;;;;;;4.70;2.40;;;;;;;17.97;50.71;99640.72;5093662;28;20318;-58
2022/01/01 11:22:28;;;;;;;3.37;2.73;;;;;;;18.00;50.83;99641.53;5093456;28;20202;-58
2022/01/01 11:24:56;;;;;;;6.30;2.93;;;;;;;18.01;50.75;99635.47;5093387;28;20298;-58
2022/01/01 11:27:26;;;;;;;4.20;2.90;;;;;;;18.02;50.84;99642.38;5093343;28;20194;-57
2022/01/01 11:29:54;;;;;;;4.37;2.87;;;;;;;18.02;51.11;99641.53;5093562;28;20539;-57
2022/01/01 11:32:23;;;;;;;4.57;3.07;;;;;;;18.07;51.01;99637.16;5092971;28;20278;-57
2022/01/01 11:34:54;;;;;;;3.77;2.63;;;;;;;18.09;50.80;99641.44;5092989;28;20231;-58
2022/01/01 11:37:23;;;;;;;4.77;2.67;;;;;;;18.22;50.78;99632.63;5092971;28;20593;-56
2022/01/01 11:39:56;;;;;;;3.13;2.80;;;;;;;18.41;50.28;99634.97;5091582;28;20478;-57
2022/01/01 11:42:25;;;;;;;3.10;2.80;;;;;;;18.50;49.72;99619.28;5092580;28;20665;-58
2022/01/01 11:44:54;;;;;;;4.07;2.70;;;;;;;18.56;49.98;99620.06;5093004;28;20195;-57